sensor_id;sensor_type;location;lat;lon;timestamp;P1;durP1;ratioP1;P2;durP2;ratioP2
9445;SDS011;4761;49.490;10.908;2023-02-15T00:01:05;5.30;;;4.80;;
9445;SDS011;4761;49.490;10.908;2023-02-15T00:03:31;5.00;;;4.60;;
9445;SDS011;4761;49.490;10.908;2023-02-15T00:05:57;5.30;;;4.80;;
9445;SDS011;4761;49.490;10.908;2023-02-15T00:08:23;5.47;;;4.97;;
9445;SDS011;4761;49.490;10.908;2023-02-15T00:10:48;4.77;;;4.33;;
9445;SDS011;4761;49.490;10.908;2023-02-15T00:13:14;5.13;;;4.63;;
9445;SDS011;4761;49.490;10.908;2023-02-15T00:15:39;5.37;;;4.87;;
9445;SDS011;4761;49.490;10.908;2023-02-15T00:18:05;5.83;;;5.23;;
9445;SDS011;4761;49.490;10.908;2023-02-15T00:20:30;5.63;;;5.10;;
9445;SDS011;4761;49.490;10.908;2023-02-15T00:22:56;5.20;;;4.77;;
9445;SDS011;4761;49.490;10.908;2023-02-15T00:25:22;5.30;;;4.87;;
9445;SDS011;4761;49.490;10.908;2023-02-15T00:27:47;5.10;;;4.70;;
9445;SDS011;4761;49.490;10.908;2023-02-15T00:30:13;4.83;;;4.43;;
9445;SDS011;4761;49.490;10.908;2023-02-15T00:32:38;4.90;;;4.50;;
9445;SDS011;4761;49.490;10.908;2023-02-15T00:35:04;5.57;;;5.07;;
9445;SDS011;4761;49.490;10.908;2023-02-15T00:37:30;4.93;;;4.43;;
9445;SDS011;4761;49.490;10.908;2023-02-15T00:39:55;4.97;;;4.57;;
9445;SDS011;4761;49.490;10.908;2023-02-15T00:42:21;5.27;;;4.83;;
9445;SDS011;4761;49.490;10.908;2023-02-15T00:44:46;4.93;;;4.53;;
9445;SDS011;4761;49.490;10.908;2023-02-15T00:47:12;5.10;;;4.70;;
9445;SDS011;4761;49.490;10.908;2023-02-15T00:49:37;5.10;;;4.70;;
9445;SDS011;4761;49.490;10.908;2023-02-15T00:52:03;5.53;;;5.03;;
9445;SDS011;4761;49.490;10.908;2023-02-15T00:54:28;5.13;;;4.63;;
9445;SDS011;4761;49.490;10.908;2023-02-15T00:56:54;4.77;;;4.37;;
9445;SDS011;4761;49.490;10.908;2023-02-15T00:59:19;4.80;;;4.40;;
9445;SDS011;4761;49.490;10.908;2023-02-15T01:01:45;4.50;;;4.10;;
9445;SDS011;4761;49.490;10.908;2023-02-15T01:04:10;4.90;;;4.40;;
9445;SDS011;4761;49.490;10.908;2023-02-15T01:06:36;4.57;;;4.17;;
9445;SDS011;4761;49.490;10.908;2023-02-15T01:09:01;4.67;;;4.27;;
9445;SDS011;4761;49.490;10.908;2023-02-15T01:11:27;4.07;;;3.77;;
9445;SDS011;4761;49.490;10.908;2023-02-15T01:13:54;4.40;;;4.00;;
9445;SDS011;4761;49.490;10.908;2023-02-15T01:16:21;4.63;;;4.23;;
9445;SDS011;4761;49.490;10.908;2023-02-15T01:18:47;4.40;;;4.00;;
9445;SDS011;4761;49.490;10.908;2023-02-15T01:21:14;4.50;;;4.10;;
9445;SDS011;4761;49.490;10.908;2023-02-15T01:23:41;4.70;;;4.30;;
9445;SDS011;4761;49.490;10.908;2023-02-15T01:26:08;4.53;;;4.13;;
9445;SDS011;4761;49.490;10.908;2023-02-15T01:28:34;4.00;;;3.70;;
9445;SDS011;4761;49.490;10.908;2023-02-15T01:31:03;4.43;;;4.03;;
9445;SDS011;4761;49.490;10.908;2023-02-15T01:33:40;4.53;;;4.13;;
9445;SDS011;4761;49.490;10.908;2023-02-15T01:36:06;4.00;;;3.70;;
9445;SDS011;4761;49.490;10.908;2023-02-15T01:38:32;4.10;;;3.80;;
9445;SDS011;4761;49.490;10.908;2023-02-15T01:40:57;4.23;;;3.93;;
9445;SDS011;4761;49.490;10.908;2023-02-15T01:43:51;4.43;;;4.03;;
9445;SDS011;4761;49.490;10.908;2023-02-15T01:46:19;4.00;;;3.70;;
9445;SDS011;4761;49.490;10.908;2023-02-15T01:48:55;4.23;;;3.90;;
9445;SDS011;4761;49.490;10.908;2023-02-15T01:51:28;4.60;;;4.20;;
9445;SDS011;4761;49.490;10.908;2023-02-15T01:53:57;3.87;;;3.57;;
9445;SDS011;4761;49.490;10.908;2023-02-15T01:56:28;3.90;;;3.60;;
9445;SDS011;4761;49.490;10.908;2023-02-15T01:58:58;3.80;;;3.50;;
9445;SDS011;4761;49.490;10.908;2023-02-15T02:01:28;3.80;;;3.50;;
9445;SDS011;4761;49.490;10.908;2023-02-15T02:04:12;3.77;;;3.47;;
9445;SDS011;4761;49.490;10.908;2023-02-15T02:06:43;3.90;;;3.60;;
9445;SDS011;4761;49.490;10.908;2023-02-15T02:09:11;3.60;;;3.30;;
9445;SDS011;4761;49.490;10.908;2023-02-15T02:11:37;3.90;;;3.60;;
9445;SDS011;4761;49.490;10.908;2023-02-15T02:14:05;3.60;;;3.30;;
9445;SDS011;4761;49.490;10.908;2023-02-15T02:16:37;4.33;;;3.93;;
9445;SDS011;4761;49.490;10.908;2023-02-15T02:19:41;3.83;;;3.53;;
9445;SDS011;4761;49.490;10.908;2023-02-15T02:22:35;3.70;;;3.40;;
9445;SDS011;4761;49.490;10.908;2023-02-15T02:36:45;3.80;;;3.50;;
9445;SDS011;4761;49.490;10.908;2023-02-15T02:44:48;3.80;;;3.50;;
9445;SDS011;4761;49.490;10.908;2023-02-15T02:47:26;3.90;;;3.60;;
9445;SDS011;4761;49.490;10.908;2023-02-15T02:50:02;4.37;;;3.97;;
9445;SDS011;4761;49.490;10.908;2023-02-15T02:52:34;3.37;;;3.13;;
9445;SDS011;4761;49.490;10.908;2023-02-15T02:55:53;3.77;;;3.47;;
9445;SDS011;4761;49.490;10.908;2023-02-15T02:58:19;3.77;;;3.47;;
9445;SDS011;4761;49.490;10.908;2023-02-15T03:00:49;3.53;;;3.23;;
9445;SDS011;4761;49.490;10.908;2023-02-15T03:03:25;3.70;;;3.40;;
9445;SDS011;4761;49.490;10.908;2023-02-15T03:05:55;4.10;;;3.80;;
9445;SDS011;4761;49.490;10.908;2023-02-15T03:08:25;3.60;;;3.30;;
9445;SDS011;4761;49.490;10.908;2023-02-15T03:10:55;3.80;;;3.50;;
9445;SDS011;4761;49.490;10.908;2023-02-15T03:13:23;3.50;;;3.20;;
9445;SDS011;4761;49.490;10.908;2023-02-15T03:15:49;3.77;;;3.43;;
9445;SDS011;4761;49.490;10.908;2023-02-15T03:18:36;3.50;;;3.20;;
9445;SDS011;4761;49.490;10.908;2023-02-15T03:21:06;3.27;;;3.00;;
9445;SDS011;4761;49.490;10.908;2023-02-15T03:23:34;3.40;;;3.10;;
9445;SDS011;4761;49.490;10.908;2023-02-15T03:26:03;3.67;;;3.37;;
9445;SDS011;4761;49.490;10.908;2023-02-15T03:31:01;3.23;;;3.03;;
9445;SDS011;4761;49.490;10.908;2023-02-15T03:33:29;3.50;;;3.20;;
9445;SDS011;4761;49.490;10.908;2023-02-15T03:36:08;2.90;;;2.70;;
9445;SDS011;4761;49.490;10.908;2023-02-15T03:44:28;3.03;;;2.83;;
9445;SDS011;4761;49.490;10.908;2023-02-15T03:49:38;3.13;;;2.93;;
9445;SDS011;4761;49.490;10.908;2023-02-15T03:52:10;3.40;;;3.10;;
9445;SDS011;4761;49.490;10.908;2023-02-15T03:54:37;3.40;;;3.10;;
9445;SDS011;4761;49.490;10.908;2023-02-15T03:57:40;3.33;;;3.03;;
9445;SDS011;4761;49.490;10.908;2023-02-15T04:00:21;3.40;;;3.20;;
9445;SDS011;4761;49.490;10.908;2023-02-15T04:05:51;3.60;;;3.30;;
9445;SDS011;4761;49.490;10.908;2023-02-15T04:08:17;3.47;;;3.17;;
9445;SDS011;4761;49.490;10.908;2023-02-15T04:10:42;3.43;;;3.17;;
9445;SDS011;4761;49.490;10.908;2023-02-15T04:13:18;3.30;;;3.00;;
9445;SDS011;4761;49.490;10.908;2023-02-15T04:15:44;3.40;;;3.10;;
9445;SDS011;4761;49.490;10.908;2023-02-15T04:18:28;3.30;;;3.10;;
9445;SDS011;4761;49.490;10.908;2023-02-15T04:21:18;3.10;;;2.90;;
9445;SDS011;4761;49.490;10.908;2023-02-15T04:24:04;3.23;;;2.93;;
9445;SDS011;4761;49.490;10.908;2023-02-15T04:26:48;3.50;;;3.20;;
9445;SDS011;4761;49.490;10.908;2023-02-15T04:29:16;3.50;;;3.20;;
9445;SDS011;4761;49.490;10.908;2023-02-15T04:31:42;3.70;;;3.40;;
9445;SDS011;4761;49.490;10.908;2023-02-15T04:34:08;3.50;;;3.20;;
9445;SDS011;4761;49.490;10.908;2023-02-15T04:36:35;3.40;;;3.10;;
9445;SDS011;4761;49.490;10.908;2023-02-15T04:39:00;3.70;;;3.40;;
9445;SDS011;4761;49.490;10.908;2023-02-15T04:41:26;3.23;;;3.00;;
9445;SDS011;4761;49.490;10.908;2023-02-15T04:43:51;3.07;;;2.87;;
9445;SDS011;4761;49.490;10.908;2023-02-15T04:46:17;3.10;;;2.90;;
9445;SDS011;4761;49.490;10.908;2023-02-15T04:48:42;3.20;;;3.00;;
9445;SDS011;4761;49.490;10.908;2023-02-15T04:51:08;3.60;;;3.30;;
9445;SDS011;4761;49.490;10.908;2023-02-15T04:53:34;3.57;;;3.27;;
9445;SDS011;4761;49.490;10.908;2023-02-15T04:56:00;3.70;;;3.40;;
9445;SDS011;4761;49.490;10.908;2023-02-15T04:58:26;3.30;;;3.00;;
9445;SDS011;4761;49.490;10.908;2023-02-15T05:00:54;3.40;;;3.10;;
9445;SDS011;4761;49.490;10.908;2023-02-15T05:03:20;3.30;;;3.00;;
9445;SDS011;4761;49.490;10.908;2023-02-15T05:05:46;3.07;;;2.87;;
9445;SDS011;4761;49.490;10.908;2023-02-15T05:08:11;3.50;;;3.20;;
9445;SDS011;4761;49.490;10.908;2023-02-15T05:10:37;3.70;;;3.40;;
9445;SDS011;4761;49.490;10.908;2023-02-15T05:13:02;2.90;;;2.70;;
9445;SDS011;4761;49.490;10.908;2023-02-15T05:15:28;3.10;;;2.90;;
9445;SDS011;4761;49.490;10.908;2023-02-15T05:17:53;3.40;;;3.10;;
9445;SDS011;4761;49.490;10.908;2023-02-15T05:20:19;2.97;;;2.77;;
9445;SDS011;4761;49.490;10.908;2023-02-15T05:22:44;3.10;;;2.80;;
9445;SDS011;4761;49.490;10.908;2023-02-15T05:25:10;3.43;;;3.13;;
9445;SDS011;4761;49.490;10.908;2023-02-15T05:27:54;3.07;;;2.87;;
9445;SDS011;4761;49.490;10.908;2023-02-15T05:30:38;2.87;;;2.67;;
9445;SDS011;4761;49.490;10.908;2023-02-15T05:33:04;3.20;;;3.00;;
9445;SDS011;4761;49.490;10.908;2023-02-15T05:35:31;3.40;;;3.10;;
9445;SDS011;4761;49.490;10.908;2023-02-15T05:37:57;2.87;;;2.67;;
9445;SDS011;4761;49.490;10.908;2023-02-15T05:40:23;3.33;;;3.07;;
9445;SDS011;4761;49.490;10.908;2023-02-15T05:42:48;3.40;;;3.10;;
9445;SDS011;4761;49.490;10.908;2023-02-15T05:45:14;3.37;;;3.07;;
9445;SDS011;4761;49.490;10.908;2023-02-15T05:47:40;3.60;;;3.30;;
9445;SDS011;4761;49.490;10.908;2023-02-15T05:50:06;3.23;;;2.93;;
9445;SDS011;4761;49.490;10.908;2023-02-15T05:52:33;3.27;;;3.03;;
9445;SDS011;4761;49.490;10.908;2023-02-15T05:54:59;3.07;;;2.87;;
9445;SDS011;4761;49.490;10.908;2023-02-15T05:57:25;3.20;;;2.97;;
9445;SDS011;4761;49.490;10.908;2023-02-15T05:59:51;3.43;;;3.20;;
9445;SDS011;4761;49.490;10.908;2023-02-15T06:02:17;3.60;;;3.30;;
9445;SDS011;4761;49.490;10.908;2023-02-15T06:04:42;3.00;;;2.80;;
9445;SDS011;4761;49.490;10.908;2023-02-15T06:07:08;3.37;;;3.07;;
9445;SDS011;4761;49.490;10.908;2023-02-15T06:09:33;3.60;;;3.30;;
9445;SDS011;4761;49.490;10.908;2023-02-15T06:11:59;3.73;;;3.43;;
9445;SDS011;4761;49.490;10.908;2023-02-15T06:14:24;3.80;;;3.50;;
9445;SDS011;4761;49.490;10.908;2023-02-15T06:16:50;3.97;;;3.67;;
9445;SDS011;4761;49.490;10.908;2023-02-15T06:19:15;3.53;;;3.23;;
9445;SDS011;4761;49.490;10.908;2023-02-15T06:21:41;3.70;;;3.40;;
9445;SDS011;4761;49.490;10.908;2023-02-15T06:24:08;3.70;;;3.40;;
9445;SDS011;4761;49.490;10.908;2023-02-15T06:26:34;3.77;;;3.47;;
9445;SDS011;4761;49.490;10.908;2023-02-15T06:29:00;3.63;;;3.33;;
9445;SDS011;4761;49.490;10.908;2023-02-15T06:31:25;3.60;;;3.30;;
9445;SDS011;4761;49.490;10.908;2023-02-15T06:33:51;3.60;;;3.30;;
9445;SDS011;4761;49.490;10.908;2023-02-15T06:36:16;3.80;;;3.50;;
9445;SDS011;4761;49.490;10.908;2023-02-15T06:38:42;3.60;;;3.30;;
9445;SDS011;4761;49.490;10.908;2023-02-15T06:41:07;3.80;;;3.50;;
9445;SDS011;4761;49.490;10.908;2023-02-15T06:43:33;3.77;;;3.47;;
9445;SDS011;4761;49.490;10.908;2023-02-15T06:45:59;3.70;;;3.40;;
9445;SDS011;4761;49.490;10.908;2023-02-15T06:48:25;3.40;;;3.10;;
9445;SDS011;4761;49.490;10.908;2023-02-15T06:50:51;3.40;;;3.10;;
9445;SDS011;4761;49.490;10.908;2023-02-15T06:53:16;3.60;;;3.30;;
9445;SDS011;4761;49.490;10.908;2023-02-15T06:55:42;3.50;;;3.20;;
9445;SDS011;4761;49.490;10.908;2023-02-15T06:58:07;3.30;;;3.10;;
9445;SDS011;4761;49.490;10.908;2023-02-15T07:00:33;3.90;;;3.60;;
9445;SDS011;4761;49.490;10.908;2023-02-15T07:02:59;7.03;;;6.33;;
9445;SDS011;4761;49.490;10.908;2023-02-15T07:05:25;11.77;;;10.67;;
9445;SDS011;4761;49.490;10.908;2023-02-15T07:07:55;11.77;;;10.67;;
9445;SDS011;4761;49.490;10.908;2023-02-15T07:10:22;10.93;;;9.93;;
9445;SDS011;4761;49.490;10.908;2023-02-15T07:12:47;11.40;;;10.30;;
9445;SDS011;4761;49.490;10.908;2023-02-15T07:15:14;12.30;;;11.17;;
9445;SDS011;4761;49.490;10.908;2023-02-15T07:17:41;11.73;;;10.60;;
9445;SDS011;4761;49.490;10.908;2023-02-15T07:20:11;11.00;;;10.00;;
9445;SDS011;4761;49.490;10.908;2023-02-15T07:22:39;11.13;;;10.03;;
9445;SDS011;4761;49.490;10.908;2023-02-15T07:25:06;12.70;;;11.50;;
9445;SDS011;4761;49.490;10.908;2023-02-15T07:27:33;10.53;;;9.53;;
9445;SDS011;4761;49.490;10.908;2023-02-15T07:30:00;12.33;;;11.13;;
9445;SDS011;4761;49.490;10.908;2023-02-15T07:32:32;12.00;;;10.87;;
9445;SDS011;4761;49.490;10.908;2023-02-15T07:34:58;12.27;;;11.07;;
9445;SDS011;4761;49.490;10.908;2023-02-15T07:37:24;11.40;;;10.40;;
9445;SDS011;4761;49.490;10.908;2023-02-15T07:39:50;11.93;;;10.83;;
9445;SDS011;4761;49.490;10.908;2023-02-15T07:42:15;12.57;;;11.37;;
9445;SDS011;4761;49.490;10.908;2023-02-15T07:44:42;12.43;;;11.33;;
9445;SDS011;4761;49.490;10.908;2023-02-15T07:47:08;12.80;;;11.60;;
9445;SDS011;4761;49.490;10.908;2023-02-15T07:49:33;12.00;;;10.90;;
9445;SDS011;4761;49.490;10.908;2023-02-15T07:52:00;12.10;;;11.00;;
9445;SDS011;4761;49.490;10.908;2023-02-15T07:54:26;12.17;;;11.07;;
9445;SDS011;4761;49.490;10.908;2023-02-15T07:56:52;11.90;;;10.70;;
9445;SDS011;4761;49.490;10.908;2023-02-15T07:59:17;13.90;;;12.60;;
9445;SDS011;4761;49.490;10.908;2023-02-15T08:01:43;12.33;;;11.23;;
9445;SDS011;4761;49.490;10.908;2023-02-15T08:04:08;12.40;;;11.20;;
9445;SDS011;4761;49.490;10.908;2023-02-15T08:06:36;13.13;;;11.83;;
9445;SDS011;4761;49.490;10.908;2023-02-15T08:09:06;13.53;;;12.33;;
9445;SDS011;4761;49.490;10.908;2023-02-15T08:11:33;13.03;;;11.83;;
9445;SDS011;4761;49.490;10.908;2023-02-15T08:19:06;13.70;;;12.40;;
9445;SDS011;4761;49.490;10.908;2023-02-15T08:21:37;13.53;;;12.33;;
9445;SDS011;4761;49.490;10.908;2023-02-15T08:24:05;13.50;;;12.30;;
9445;SDS011;4761;49.490;10.908;2023-02-15T08:26:32;13.57;;;12.17;;
9445;SDS011;4761;49.490;10.908;2023-02-15T08:28:58;11.87;;;10.77;;
9445;SDS011;4761;49.490;10.908;2023-02-15T08:31:24;12.63;;;11.47;;
9445;SDS011;4761;49.490;10.908;2023-02-15T08:33:51;11.73;;;10.63;;
9445;SDS011;4761;49.490;10.908;2023-02-15T08:36:19;11.27;;;10.27;;
9445;SDS011;4761;49.490;10.908;2023-02-15T08:38:46;12.40;;;11.30;;
9445;SDS011;4761;49.490;10.908;2023-02-15T08:41:13;11.73;;;10.63;;
9445;SDS011;4761;49.490;10.908;2023-02-15T08:43:45;11.40;;;10.37;;
9445;SDS011;4761;49.490;10.908;2023-02-15T08:46:13;12.67;;;11.47;;
9445;SDS011;4761;49.490;10.908;2023-02-15T08:48:39;11.90;;;10.80;;
9445;SDS011;4761;49.490;10.908;2023-02-15T08:51:15;12.03;;;10.93;;
9445;SDS011;4761;49.490;10.908;2023-02-15T08:53:43;11.80;;;10.70;;
9445;SDS011;4761;49.490;10.908;2023-02-15T08:56:10;13.43;;;12.13;;
9445;SDS011;4761;49.490;10.908;2023-02-15T08:58:37;12.60;;;11.47;;
9445;SDS011;4761;49.490;10.908;2023-02-15T09:01:07;4.17;;;3.87;;
9445;SDS011;4761;49.490;10.908;2023-02-15T09:03:37;3.53;;;3.23;;
9445;SDS011;4761;49.490;10.908;2023-02-15T09:06:04;3.90;;;3.60;;
9445;SDS011;4761;49.490;10.908;2023-02-15T09:08:30;3.60;;;3.30;;
9445;SDS011;4761;49.490;10.908;2023-02-15T09:11:05;3.90;;;3.43;;
9445;SDS011;4761;49.490;10.908;2023-02-15T09:13:33;3.73;;;3.43;;
9445;SDS011;4761;49.490;10.908;2023-02-15T09:16:02;3.83;;;3.53;;
9445;SDS011;4761;49.490;10.908;2023-02-15T09:18:31;4.00;;;3.70;;
9445;SDS011;4761;49.490;10.908;2023-02-15T09:21:04;3.60;;;3.30;;
9445;SDS011;4761;49.490;10.908;2023-02-15T09:23:40;3.70;;;3.40;;
9445;SDS011;4761;49.490;10.908;2023-02-15T09:26:11;4.07;;;3.70;;
9445;SDS011;4761;49.490;10.908;2023-02-15T09:28:39;4.10;;;3.80;;
9445;SDS011;4761;49.490;10.908;2023-02-15T09:31:12;3.70;;;3.40;;
9445;SDS011;4761;49.490;10.908;2023-02-15T09:33:40;3.90;;;3.60;;
9445;SDS011;4761;49.490;10.908;2023-02-15T09:36:17;3.77;;;3.47;;
9445;SDS011;4761;49.490;10.908;2023-02-15T09:38:53;3.87;;;3.57;;
9445;SDS011;4761;49.490;10.908;2023-02-15T09:41:46;4.07;;;3.73;;
9445;SDS011;4761;49.490;10.908;2023-02-15T09:44:25;3.87;;;3.57;;
9445;SDS011;4761;49.490;10.908;2023-02-15T09:47:16;3.87;;;3.57;;
9445;SDS011;4761;49.490;10.908;2023-02-15T09:55:19;3.70;;;3.40;;
9445;SDS011;4761;49.490;10.908;2023-02-15T09:58:20;4.03;;;3.70;;
9445;SDS011;4761;49.490;10.908;2023-02-15T10:01:19;3.97;;;3.60;;
9445;SDS011;4761;49.490;10.908;2023-02-15T10:26:35;3.50;;;3.20;;
9445;SDS011;4761;49.490;10.908;2023-02-15T10:31:55;3.67;;;3.37;;
9445;SDS011;4761;49.490;10.908;2023-02-15T10:34:38;3.67;;;3.37;;
9445;SDS011;4761;49.490;10.908;2023-02-15T10:40:05;3.77;;;3.47;;
9445;SDS011;4761;49.490;10.908;2023-02-15T10:50:46;3.90;;;3.50;;
9445;SDS011;4761;49.490;10.908;2023-02-15T11:01:55;3.33;;;3.03;;
9445;SDS011;4761;49.490;10.908;2023-02-15T11:04:46;3.60;;;3.30;;
9445;SDS011;4761;49.490;10.908;2023-02-15T11:07:29;3.80;;;3.50;;
9445;SDS011;4761;49.490;10.908;2023-02-15T11:12:43;3.53;;;3.23;;
9445;SDS011;4761;49.490;10.908;2023-02-15T11:17:46;3.80;;;3.50;;
9445;SDS011;4761;49.490;10.908;2023-02-15T11:23:12;3.70;;;3.40;;
9445;SDS011;4761;49.490;10.908;2023-02-15T11:25:41;3.93;;;3.57;;
9445;SDS011;4761;49.490;10.908;2023-02-15T11:28:18;4.03;;;3.63;;
9445;SDS011;4761;49.490;10.908;2023-02-15T11:30:48;3.83;;;3.53;;
9445;SDS011;4761;49.490;10.908;2023-02-15T11:33:18;4.07;;;3.67;;
9445;SDS011;4761;49.490;10.908;2023-02-15T11:35:55;3.73;;;3.43;;
9445;SDS011;4761;49.490;10.908;2023-02-15T11:38:33;4.40;;;4.00;;
9445;SDS011;4761;49.490;10.908;2023-02-15T11:43:36;4.10;;;3.70;;
9445;SDS011;4761;49.490;10.908;2023-02-15T11:46:36;4.37;;;4.00;;
9445;SDS011;4761;49.490;10.908;2023-02-15T11:49:02;4.30;;;3.90;;
9445;SDS011;4761;49.490;10.908;2023-02-15T11:51:29;3.73;;;3.43;;
9445;SDS011;4761;49.490;10.908;2023-02-15T11:53:55;4.43;;;4.03;;
9445;SDS011;4761;49.490;10.908;2023-02-15T11:56:22;4.60;;;4.20;;
9445;SDS011;4761;49.490;10.908;2023-02-15T12:01:30;4.70;;;4.20;;
9445;SDS011;4761;49.490;10.908;2023-02-15T12:04:06;4.53;;;4.13;;
9445;SDS011;4761;49.490;10.908;2023-02-15T12:06:38;4.17;;;3.77;;
9445;SDS011;4761;49.490;10.908;2023-02-15T12:09:15;4.50;;;4.10;;
9445;SDS011;4761;49.490;10.908;2023-02-15T12:11:49;4.50;;;4.10;;
9445;SDS011;4761;49.490;10.908;2023-02-15T12:14:14;4.50;;;4.10;;
9445;SDS011;4761;49.490;10.908;2023-02-15T12:19:12;4.93;;;4.43;;
9445;SDS011;4761;49.490;10.908;2023-02-15T12:21:58;5.03;;;4.53;;
9445;SDS011;4761;49.490;10.908;2023-02-15T12:24:26;4.90;;;4.40;;
9445;SDS011;4761;49.490;10.908;2023-02-15T12:26:55;4.47;;;4.07;;
9445;SDS011;4761;49.490;10.908;2023-02-15T12:29:27;4.93;;;4.43;;
9445;SDS011;4761;49.490;10.908;2023-02-15T12:31:59;4.63;;;4.20;;
9445;SDS011;4761;49.490;10.908;2023-02-15T12:34:35;5.27;;;4.80;;
9445;SDS011;4761;49.490;10.908;2023-02-15T12:37:09;5.07;;;4.63;;
9445;SDS011;4761;49.490;10.908;2023-02-15T12:39:52;5.20;;;4.60;;
9445;SDS011;4761;49.490;10.908;2023-02-15T12:42:19;5.10;;;4.60;;
9445;SDS011;4761;49.490;10.908;2023-02-15T12:45:00;5.23;;;4.73;;
9445;SDS011;4761;49.490;10.908;2023-02-15T12:47:27;5.03;;;4.53;;
9445;SDS011;4761;49.490;10.908;2023-02-15T12:52:47;5.80;;;5.20;;
9445;SDS011;4761;49.490;10.908;2023-02-15T12:55:24;4.80;;;4.40;;
9445;SDS011;4761;49.490;10.908;2023-02-15T13:00:38;5.77;;;4.80;;
9445;SDS011;4761;49.490;10.908;2023-02-15T13:03:04;5.57;;;4.90;;
9445;SDS011;4761;49.490;10.908;2023-02-15T13:05:39;5.60;;;5.10;;
9445;SDS011;4761;49.490;10.908;2023-02-15T13:08:15;5.70;;;5.20;;
9445;SDS011;4761;49.490;10.908;2023-02-15T13:10:53;5.93;;;5.33;;
9445;SDS011;4761;49.490;10.908;2023-02-15T13:13:25;5.30;;;4.80;;
9445;SDS011;4761;49.490;10.908;2023-02-15T13:15:55;5.90;;;5.30;;
9445;SDS011;4761;49.490;10.908;2023-02-15T13:21:08;7.03;;;5.20;;
9445;SDS011;4761;49.490;10.908;2023-02-15T13:23:37;5.70;;;5.10;;
9445;SDS011;4761;49.490;10.908;2023-02-15T13:26:05;5.37;;;4.87;;
9445;SDS011;4761;49.490;10.908;2023-02-15T13:28:42;6.10;;;5.50;;
9445;SDS011;4761;49.490;10.908;2023-02-15T13:31:12;5.87;;;5.13;;
9445;SDS011;4761;49.490;10.908;2023-02-15T13:33:42;6.03;;;5.43;;
9445;SDS011;4761;49.490;10.908;2023-02-15T13:36:22;5.37;;;4.87;;
9445;SDS011;4761;49.490;10.908;2023-02-15T13:39:03;6.33;;;5.73;;
9445;SDS011;4761;49.490;10.908;2023-02-15T13:41:33;5.80;;;5.20;;
9445;SDS011;4761;49.490;10.908;2023-02-15T13:44:57;5.77;;;5.20;;
9445;SDS011;4761;49.490;10.908;2023-02-15T13:47:32;6.53;;;5.83;;
9445;SDS011;4761;49.490;10.908;2023-02-15T14:00:52;6.67;;;5.73;;
9445;SDS011;4761;49.490;10.908;2023-02-15T14:12:36;5.87;;;5.27;;
9445;SDS011;4761;49.490;10.908;2023-02-15T14:17:53;5.93;;;5.33;;
9445;SDS011;4761;49.490;10.908;2023-02-15T14:26:00;5.87;;;5.27;;
9445;SDS011;4761;49.490;10.908;2023-02-15T14:31:14;5.90;;;5.30;;
9445;SDS011;4761;49.490;10.908;2023-02-15T14:33:41;6.57;;;5.87;;
9445;SDS011;4761;49.490;10.908;2023-02-15T14:36:16;6.10;;;5.50;;
9445;SDS011;4761;49.490;10.908;2023-02-15T14:39:02;6.10;;;5.50;;
9445;SDS011;4761;49.490;10.908;2023-02-15T14:44:29;6.23;;;5.50;;
9445;SDS011;4761;49.490;10.908;2023-02-15T14:49:50;6.33;;;5.73;;
9445;SDS011;4761;49.490;10.908;2023-02-15T14:52:15;5.63;;;5.00;;
9445;SDS011;4761;49.490;10.908;2023-02-15T15:04:33;6.17;;;5.57;;
9445;SDS011;4761;49.490;10.908;2023-02-15T15:07:03;6.47;;;5.50;;
9445;SDS011;4761;49.490;10.908;2023-02-15T15:09:44;6.27;;;5.63;;
9445;SDS011;4761;49.490;10.908;2023-02-15T15:14:51;6.20;;;5.60;;
9445;SDS011;4761;49.490;10.908;2023-02-15T15:17:53;6.40;;;5.80;;
9445;SDS011;4761;49.490;10.908;2023-02-15T15:25:39;6.47;;;5.80;;
9445;SDS011;4761;49.490;10.908;2023-02-15T15:28:06;6.33;;;5.70;;
9445;SDS011;4761;49.490;10.908;2023-02-15T15:33:11;6.67;;;5.97;;
9445;SDS011;4761;49.490;10.908;2023-02-15T15:47:05;6.03;;;5.20;;
9445;SDS011;4761;49.490;10.908;2023-02-15T15:49:45;7.80;;;5.30;;
9445;SDS011;4761;49.490;10.908;2023-02-15T15:52:15;6.07;;;5.47;;
9445;SDS011;4761;49.490;10.908;2023-02-15T15:54:46;5.73;;;5.23;;
9445;SDS011;4761;49.490;10.908;2023-02-15T15:57:37;5.97;;;5.37;;
9445;SDS011;4761;49.490;10.908;2023-02-15T16:00:05;5.80;;;5.20;;
9445;SDS011;4761;49.490;10.908;2023-02-15T16:02:51;6.27;;;5.67;;
9445;SDS011;4761;49.490;10.908;2023-02-15T16:05:17;6.47;;;5.83;;
9445;SDS011;4761;49.490;10.908;2023-02-15T16:07:43;5.83;;;5.33;;
9445;SDS011;4761;49.490;10.908;2023-02-15T16:13:05;5.73;;;5.13;;
9445;SDS011;4761;49.490;10.908;2023-02-15T16:15:36;6.07;;;5.43;;
9445;SDS011;4761;49.490;10.908;2023-02-15T16:18:11;5.90;;;5.30;;
9445;SDS011;4761;49.490;10.908;2023-02-15T16:20:41;6.00;;;5.40;;
9445;SDS011;4761;49.490;10.908;2023-02-15T16:26:20;5.87;;;5.13;;
9445;SDS011;4761;49.490;10.908;2023-02-15T16:29:12;6.53;;;5.83;;
9445;SDS011;4761;49.490;10.908;2023-02-15T16:31:40;5.73;;;5.00;;
9445;SDS011;4761;49.490;10.908;2023-02-15T16:34:09;5.77;;;5.17;;
9445;SDS011;4761;49.490;10.908;2023-02-15T16:36:41;6.33;;;5.47;;
9445;SDS011;4761;49.490;10.908;2023-02-15T16:39:16;7.00;;;5.17;;
9445;SDS011;4761;49.490;10.908;2023-02-15T16:41:44;5.67;;;5.17;;
9445;SDS011;4761;49.490;10.908;2023-02-15T16:44:20;5.63;;;5.10;;
9445;SDS011;4761;49.490;10.908;2023-02-15T16:46:49;5.83;;;5.23;;
9445;SDS011;4761;49.490;10.908;2023-02-15T16:49:22;5.57;;;5.07;;
9445;SDS011;4761;49.490;10.908;2023-02-15T16:51:58;5.83;;;5.23;;
9445;SDS011;4761;49.490;10.908;2023-02-15T16:54:25;6.03;;;5.43;;
9445;SDS011;4761;49.490;10.908;2023-02-15T16:56:53;6.03;;;5.30;;
9445;SDS011;4761;49.490;10.908;2023-02-15T17:00:03;5.87;;;5.17;;
9445;SDS011;4761;49.490;10.908;2023-02-15T17:02:14;6.43;;;5.80;;
9445;SDS011;4761;49.490;10.908;2023-02-15T17:04:42;6.17;;;5.43;;
9445;SDS011;4761;49.490;10.908;2023-02-15T17:07:15;5.97;;;5.37;;
9445;SDS011;4761;49.490;10.908;2023-02-15T17:09:51;7.00;;;6.03;;
9445;SDS011;4761;49.490;10.908;2023-02-15T17:12:43;6.00;;;5.40;;
9445;SDS011;4761;49.490;10.908;2023-02-15T17:15:28;7.00;;;5.50;;
9445;SDS011;4761;49.490;10.908;2023-02-15T17:18:23;6.23;;;5.60;;
9445;SDS011;4761;49.490;10.908;2023-02-15T17:20:50;5.37;;;4.87;;
9445;SDS011;4761;49.490;10.908;2023-02-15T17:23:26;6.43;;;5.83;;
9445;SDS011;4761;49.490;10.908;2023-02-15T17:25:56;6.30;;;5.70;;
9445;SDS011;4761;49.490;10.908;2023-02-15T17:28:24;6.40;;;5.57;;
9445;SDS011;4761;49.490;10.908;2023-02-15T17:30:52;6.57;;;5.97;;
9445;SDS011;4761;49.490;10.908;2023-02-15T17:33:24;6.20;;;5.27;;
9445;SDS011;4761;49.490;10.908;2023-02-15T17:36:07;6.70;;;6.10;;
9445;SDS011;4761;49.490;10.908;2023-02-15T17:38:58;5.80;;;5.00;;
9445;SDS011;4761;49.490;10.908;2023-02-15T17:41:32;6.27;;;5.67;;
9445;SDS011;4761;49.490;10.908;2023-02-15T17:43:59;6.80;;;6.10;;
9445;SDS011;4761;49.490;10.908;2023-02-15T17:46:25;6.50;;;5.77;;
9445;SDS011;4761;49.490;10.908;2023-02-15T17:48:53;6.27;;;5.67;;
9445;SDS011;4761;49.490;10.908;2023-02-15T17:51:21;6.67;;;5.93;;
9445;SDS011;4761;49.490;10.908;2023-02-15T17:53:47;7.10;;;6.40;;
9445;SDS011;4761;49.490;10.908;2023-02-15T17:56:32;6.33;;;5.73;;
9445;SDS011;4761;49.490;10.908;2023-02-15T17:58:58;7.23;;;6.53;;
9445;SDS011;4761;49.490;10.908;2023-02-15T18:01:24;6.87;;;6.17;;
9445;SDS011;4761;49.490;10.908;2023-02-15T18:04:08;6.93;;;6.23;;
9445;SDS011;4761;49.490;10.908;2023-02-15T18:06:56;7.27;;;6.33;;
9445;SDS011;4761;49.490;10.908;2023-02-15T18:09:40;7.10;;;6.40;;
9445;SDS011;4761;49.490;10.908;2023-02-15T18:12:29;7.57;;;6.83;;
9445;SDS011;4761;49.490;10.908;2023-02-15T18:14:56;7.20;;;6.50;;
9445;SDS011;4761;49.490;10.908;2023-02-15T18:17:30;6.97;;;6.30;;
9445;SDS011;4761;49.490;10.908;2023-02-15T18:19:58;7.00;;;6.30;;
9445;SDS011;4761;49.490;10.908;2023-02-15T18:22:29;7.30;;;6.60;;
9445;SDS011;4761;49.490;10.908;2023-02-15T18:24:55;7.57;;;6.87;;
9445;SDS011;4761;49.490;10.908;2023-02-15T18:27:20;7.00;;;6.30;;